Time;durP1;ratioP1;P1;durP2;ratioP2;P2;SDS_P1;SDS_P2;PMS_P1;PMS_P2;Temp;Humidity;BMP_temperature;BMP_pressure;BME280_temperature;BME280_humidity;BME280_pressure;Samples;Min_cycle;Max_cycle;Signal;HPM_P1;HPM_P2
2021/12/28 00:01:53;;;;;;;56.58;30.88;;;7.00;99.90;;;;;;5051880;28;20376;-68
2021/12/28 00:04:19;;;;;;;54.35;32.42;;;7.00;99.90;;;;;;5053365;28;20334;-68
2021/12/28 00:06:44;;;;;;;54.25;30.70;;;7.00;99.90;;;;;;5057662;28;20044;-68
2021/12/28 00:09:10;;;;;;;52.72;30.52;;;7.00;99.90;;;;;;5050683;28;20136;-67
2021/12/28 00:11:35;;;;;;;61.97;33.38;;;7.00;99.90;;;;;;5060212;28;20091;-67
2021/12/28 00:14:02;;;;;;;57.63;30.73;;;7.00;99.90;;;;;;5054485;28;20055;-67
2021/12/28 00:17:58;;;;;;;61.05;32.25;;;7.00;99.90;;;;;;5057922;28;20051;-67
2021/12/28 00:19:20;;;;;;;59.47;32.28;;;7.10;99.90;;;;;;5058756;28;20156;-68
2021/12/28 00:21:45;;;;;;;67.28;34.88;;;7.10;99.90;;;;;;5058152;28;20951;-68
2021/12/28 00:24:11;;;;;;;63.28;31.90;;;7.10;99.90;;;;;;5060027;28;20036;-68
2021/12/28 00:26:36;;;;;;;69.78;34.95;;;7.10;99.90;;;;;;5058211;28;20055;-68
2021/12/28 00:29:02;;;;;;;60.13;31.40;;;7.10;99.90;;;;;;5060030;28;20120;-67
2021/12/28 00:31:28;;;;;;;77.57;35.58;;;7.10;99.90;;;;;;5056018;28;20060;-67
2021/12/28 00:33:57;;;;;;;57.13;30.42;;;7.10;99.90;;;;;;5053309;28;20396;-67
2021/12/28 00:36:23;;;;;;;68.05;33.47;;;7.10;99.90;;;;;;5065341;28;20364;-68
2021/12/28 00:38:48;;;;;;;72.60;34.47;;;7.10;99.90;;;;;;5063805;28;20041;-68
2021/12/28 00:41:14;;;;;;;65.55;33.00;;;7.10;99.90;;;;;;5053276;28;20052;-67
2021/12/28 00:43:40;;;;;;;68.43;34.20;;;7.10;99.90;;;;;;5059548;28;20379;-68
2021/12/28 00:46:07;;;;;;;70.95;33.22;;;7.10;99.90;;;;;;5059423;28;20099;-67
2021/12/28 00:48:34;;;;;;;70.55;33.75;;;7.20;99.90;;;;;;5062556;28;20308;-67
2021/12/28 00:50:59;;;;;;;65.22;33.13;;;7.20;99.90;;;;;;5062421;28;20064;-68
2021/12/28 00:53:25;;;;;;;75.82;35.20;;;7.20;99.90;;;;;;5056253;28;20068;-68
2021/12/28 00:55:51;;;;;;;83.57;35.55;;;7.20;99.90;;;;;;5059509;28;20136;-67
2021/12/28 00:58:18;;;;;;;80.00;35.40;;;7.20;99.90;;;;;;5053467;28;20456;-68
2021/12/28 01:00:44;;;;;;;75.55;34.10;;;7.20;99.90;;;;;;5057208;28;20068;-68
2021/12/28 01:03:10;;;;;;;85.28;36.00;;;7.20;99.90;;;;;;5040289;28;20099;-68
2021/12/28 01:05:38;;;;;;;68.82;33.10;;;7.20;99.90;;;;;;5061677;28;20056;-68
2021/12/28 01:08:03;;;;;;;72.05;34.22;;;7.20;99.90;;;;;;5056098;28;20057;-67
2021/12/28 01:10:34;;;;;;;72.72;34.25;;;7.20;99.90;;;;;;5064419;28;20040;-68
2021/12/28 01:13:00;;;;;;;77.50;33.15;;;7.20;99.90;;;;;;5053384;28;21809;-67
2021/12/28 01:15:28;;;;;;;82.20;34.13;;;7.20;99.90;;;;;;5051609;28;20044;-68
2021/12/28 01:17:54;;;;;;;72.55;34.00;;;7.20;99.90;;;;;;5066539;28;20044;-67
2021/12/28 01:20:20;;;;;;;93.25;36.38;;;7.30;99.90;;;;;;5053002;28;20387;-68
2021/12/28 01:22:46;;;;;;;77.63;33.70;;;7.30;99.90;;;;;;5056564;28;20060;-68
2021/12/28 01:25:14;;;;;;;82.65;34.80;;;7.30;99.90;;;;;;5051024;28;20148;-68
2021/12/28 01:27:40;;;;;;;78.10;34.13;;;7.30;99.90;;;;;;5061095;28;20033;-68
2021/12/28 01:30:08;;;;;;;80.20;35.50;;;7.30;99.90;;;;;;5064831;28;20120;-68
2021/12/28 01:32:35;;;;;;;77.82;31.98;;;7.30;99.90;;;;;;5053160;28;20045;-68
2021/12/28 01:35:01;;;;;;;82.13;33.97;;;7.40;99.90;;;;;;5059511;28;20049;-68
2021/12/28 01:37:27;;;;;;;84.25;33.72;;;7.30;99.90;;;;;;5056155;28;20070;-67
2021/12/28 01:39:52;;;;;;;89.15;34.78;;;7.40;99.90;;;;;;5063421;28;20143;-68
2021/12/28 01:42:18;;;;;;;70.93;31.42;;;7.40;99.90;;;;;;5062382;28;20395;-68
2021/12/28 01:44:43;;;;;;;74.03;32.42;;;7.40;99.90;;;;;;5057028;28;20072;-68
2021/12/28 01:47:12;;;;;;;91.40;35.78;;;7.40;99.90;;;;;;5061077;28;20041;-67
2021/12/28 01:49:38;;;;;;;84.07;34.20;;;7.40;99.90;;;;;;5036112;28;20072;-67
2021/12/28 01:52:04;;;;;;;71.53;32.90;;;7.40;99.90;;;;;;5054862;28;20135;-68
2021/12/28 01:54:29;;;;;;;76.40;32.30;;;7.40;99.90;;;;;;5062305;28;20384;-67
2021/12/28 01:56:55;;;;;;;81.80;34.25;;;7.40;99.90;;;;;;5060470;28;20051;-68
2021/12/28 01:59:22;;;;;;;91.05;35.63;;;7.40;99.90;;;;;;5060045;28;20123;-67
2021/12/28 02:01:48;;;;;;;74.70;32.25;;;7.40;99.90;;;;;;5060603;28;20041;-67
2021/12/28 02:04:23;;;;;;;80.85;34.17;;;7.40;99.90;;;;;;5057191;28;20077;-67
2021/12/28 02:06:50;;;;;;;;;;;7.40;99.90;;;;;;5052536;28;20044;-67
2021/12/28 02:09:16;;;;;;;84.38;34.00;;;7.40;99.90;;;;;;5056648;28;20339;-67
2021/12/28 02:11:42;;;;;;;79.60;33.83;;;7.40;99.90;;;;;;5055108;28;20053;-67
2021/12/28 02:14:08;;;;;;;85.95;34.90;;;7.40;99.90;;;;;;5057886;28;20142;-69
2021/12/28 02:16:40;;;;;;;85.28;33.10;;;7.50;99.90;;;;;;5057406;28;20451;-68
2021/12/28 02:19:07;;;;;;;77.35;33.33;;;7.50;99.90;;;;;;5057029;28;20092;-67
2021/12/28 02:21:33;;;;;;;70.55;31.98;;;7.50;99.90;;;;;;5052855;28;20049;-68
2021/12/28 02:24:05;;;;;;;76.78;33.13;;;7.50;99.90;;;;;;5056125;28;20037;-68
2021/12/28 02:26:30;;;;;;;70.57;30.38;;;7.50;99.90;;;;;;5057747;28;20037;-68
2021/12/28 02:28:56;;;;;;;74.40;31.08;;;7.50;99.90;;;;;;5041084;28;20039;-68
2021/12/28 02:31:22;;;;;;;78.57;32.28;;;7.50;99.90;;;;;;5050053;28;20565;-68
2021/12/28 02:33:49;;;;;;;75.07;31.58;;;7.50;99.90;;;;;;5058065;28;20407;-68
2021/12/28 02:36:15;;;;;;;70.65;30.15;;;7.50;99.90;;;;;;5050254;28;20264;-68
2021/12/28 02:38:42;;;;;;;71.18;30.08;;;7.50;99.90;;;;;;5061136;28;20385;-68
2021/12/28 02:41:09;;;;;;;68.57;29.83;;;7.50;99.90;;;;;;5056133;28;20045;-68
2021/12/28 02:43:35;;;;;;;68.55;29.30;;;7.60;99.90;;;;;;5057649;28;20437;-68
2021/12/28 02:46:03;;;;;;;64.82;27.88;;;7.60;99.90;;;;;;5052338;28;20106;-68
2021/12/28 02:48:29;;;;;;;71.72;29.55;;;7.60;99.90;;;;;;5055964;28;20037;-68
2021/12/28 02:51:15;;;;;;;68.13;28.52;;;7.60;99.90;;;;;;5059762;28;20357;-68
2021/12/28 02:53:43;;;;;;;74.10;30.77;;;7.60;99.90;;;;;;5055587;28;20079;-68
2021/12/28 02:56:10;;;;;;;68.55;28.92;;;7.60;99.90;;;;;;5047330;28;20049;-68
2021/12/28 02:58:50;;;;;;;69.07;29.10;;;7.60;99.90;;;;;;5058942;28;20404;-68
2021/12/28 03:01:25;;;;;;;65.82;27.50;;;7.60;99.90;;;;;;5056893;28;20102;-68
2021/12/28 03:03:54;;;;;;;64.40;28.75;;;7.60;99.90;;;;;;5047129;28;20368;-67
2021/12/28 03:06:22;;;;;;;73.05;28.92;;;7.60;99.90;;;;;;5052057;28;20215;-68
2021/12/28 03:08:53;;;;;;;67.55;28.98;;;7.70;99.90;;;;;;5057118;28;20198;-67
2021/12/28 03:11:20;;;;;;;69.28;27.63;;;7.70;99.90;;;;;;5055182;28;20041;-67
2021/12/28 03:13:48;;;;;;;65.35;27.88;;;7.70;99.90;;;;;;5055311;28;20040;-67
2021/12/28 03:16:15;;;;;;;66.03;28.05;;;7.70;99.90;;;;;;5060597;28;20068;-68
2021/12/28 03:18:41;;;;;;;74.25;29.45;;;7.70;99.90;;;;;;5054704;28;20040;-68
2021/12/28 03:21:09;;;;;;;66.28;26.85;;;7.70;99.90;;;;;;5052547;28;20036;-68
2021/12/28 03:23:36;;;;;;;68.95;28.33;;;7.70;99.90;;;;;;5060248;28;20040;-68
2021/12/28 03:26:03;;;;;;;60.85;27.40;;;7.70;99.90;;;;;;5057195;28;20307;-68
2021/12/28 03:28:33;;;;;;;62.10;27.52;;;7.70;99.90;;;;;;5052423;28;20060;-68
2021/12/28 03:31:00;;;;;;;59.97;26.05;;;7.60;99.90;;;;;;5062913;28;20475;-67
2021/12/28 03:33:29;;;;;;;59.90;26.35;;;7.60;99.90;;;;;;5062454;28;20040;-67
2021/12/28 03:35:55;;;;;;;56.05;26.52;;;7.60;99.90;;;;;;5056060;28;20040;-67
2021/12/28 03:38:22;;;;;;;53.08;24.85;;;7.60;99.90;;;;;;5065857;28;20106;-67
2021/12/28 03:40:48;;;;;;;54.92;24.80;;;7.60;99.90;;;;;;5058897;28;20041;-67
2021/12/28 03:43:14;;;;;;;54.47;24.23;;;7.60;99.90;;;;;;5055845;28;20051;-68
2021/12/28 03:45:40;;;;;;;46.40;23.15;;;7.50;99.90;;;;;;5052940;28;20484;-68
2021/12/28 03:48:06;;;;;;;51.70;23.92;;;7.60;99.90;;;;;;5059789;28;20086;-68
2021/12/28 03:50:33;;;;;;;55.25;23.33;;;7.50;99.90;;;;;;5059860;28;20048;-68
2021/12/28 03:52:59;;;;;;;48.80;22.80;;;7.50;99.90;;;;;;5048734;28;20056;-68
2021/12/28 03:55:25;;;;;;;45.70;20.75;;;7.50;99.90;;;;;;5056482;28;20830;-67
2021/12/28 03:57:52;;;;;;;43.10;21.05;;;7.50;99.90;;;;;;5059606;28;20041;-67
2021/12/28 04:00:20;;;;;;;50.95;21.65;;;7.40;99.90;;;;;;5063403;28;20036;-67
2021/12/28 04:02:46;;;;;;;45.97;21.25;;;7.40;99.90;;;;;;5054110;28;20069;-67
2021/12/28 04:05:13;;;;;;;41.88;19.90;;;7.40;99.90;;;;;;5057844;28;20079;-67
2021/12/28 04:07:39;;;;;;;42.78;20.02;;;7.40;99.90;;;;;;5061080;28;20399;-68
2021/12/28 04:10:08;;;;;;;46.10;20.88;;;7.40;99.90;;;;;;5052885;28;21307;-67
2021/12/28 04:12:34;;;;;;;40.50;19.67;;;7.40;99.90;;;;;;5068082;28;20087;-68
2021/12/28 04:15:00;;;;;;;36.28;18.23;;;7.40;99.90;;;;;;5060345;28;20404;-68
2021/12/28 04:17:27;;;;;;;37.05;18.65;;;7.40;99.90;;;;;;5053842;28;20044;-67
2021/12/28 04:19:53;;;;;;;42.60;19.15;;;7.40;99.90;;;;;;5054265;28;20105;-68
2021/12/28 04:22:20;;;;;;;40.08;19.33;;;7.40;99.90;;;;;;5058239;28;20052;-68
2021/12/28 04:24:45;;;;;;;42.90;21.40;;;7.40;99.90;;;;;;5064007;28;20037;-67
2021/12/28 04:27:11;;;;;;;49.80;20.88;;;7.40;99.90;;;;;;5054023;28;20399;-67
2021/12/28 04:29:37;;;;;;;41.47;20.33;;;7.50;99.90;;;;;;5066707;28;20375;-67
2021/12/28 04:32:03;;;;;;;42.83;21.60;;;7.50;99.90;;;;;;5053678;28;20045;-67
2021/12/28 04:34:28;;;;;;;40.80;20.52;;;7.50;99.90;;;;;;5057552;28;20131;-67
2021/12/28 04:36:54;;;;;;;39.25;20.88;;;7.40;99.90;;;;;;5056440;28;20123;-67
2021/12/28 04:39:20;;;;;;;43.15;21.40;;;7.40;99.90;;;;;;5064400;28;20040;-68
2021/12/28 04:41:45;;;;;;;37.40;21.05;;;7.40;99.90;;;;;;5061439;28;20641;-67
2021/12/28 04:44:13;;;;;;;38.05;20.45;;;7.40;99.90;;;;;;5057252;28;20032;-68
2021/12/28 04:46:40;;;;;;;38.67;21.00;;;7.40;99.90;;;;;;5056081;28;20044;-67
2021/12/28 04:49:06;;;;;;;38.30;20.20;;;7.40;99.90;;;;;;5058390;28;20617;-68
2021/12/28 04:51:32;;;;;;;37.67;19.40;;;7.40;99.90;;;;;;5056320;28;20069;-68
2021/12/28 04:54:00;;;;;;;38.22;18.98;;;7.40;99.90;;;;;;5061396;28;20135;-68
2021/12/28 04:56:26;;;;;;;36.45;18.83;;;7.40;99.90;;;;;;5065029;28;21758;-68
2021/12/28 04:58:52;;;;;;;38.60;18.33;;;7.40;99.90;;;;;;5063833;28;20037;-68
2021/12/28 05:01:18;;;;;;;36.53;18.23;;;7.40;99.90;;;;;;5056062;28;20376;-67
2021/12/28 05:03:43;;;;;;;32.60;16.95;;;7.40;99.90;;;;;;5063745;28;20040;-67
2021/12/28 05:06:09;;;;;;;34.92;18.13;;;7.40;99.90;;;;;;5050801;28;20506;-68
2021/12/28 05:08:34;;;;;;;31.48;17.20;;;7.40;99.90;;;;;;5063902;28;20074;-67
2021/12/28 05:11:00;;;;;;;33.63;16.75;;;7.40;99.90;;;;;;5060208;28;20045;-68
2021/12/28 05:13:26;;;;;;;31.77;16.67;;;7.30;99.90;;;;;;5060491;28;20192;-67
2021/12/28 05:15:53;;;;;;;32.80;16.30;;;7.40;99.90;;;;;;5058788;28;21432;-67
2021/12/28 05:18:19;;;;;;;35.22;15.85;;;7.30;99.90;;;;;;5065612;28;20078;-68
2021/12/28 05:20:46;;;;;;;27.48;14.73;;;7.30;99.90;;;;;;5065990;28;20056;-68
2021/12/28 05:23:13;;;;;;;29.85;15.15;;;7.40;99.90;;;;;;5054338;28;20215;-67
2021/12/28 05:25:39;;;;;;;33.75;15.40;;;7.30;99.90;;;;;;5054126;28;20056;-68
2021/12/28 05:28:05;;;;;;;27.25;14.63;;;7.30;99.90;;;;;;5054513;28;20044;-68
2021/12/28 05:30:31;;;;;;;28.05;15.45;;;7.30;99.90;;;;;;5053764;28;20048;-67
2021/12/28 05:32:57;;;;;;;24.60;13.73;;;7.30;99.90;;;;;;5052701;28;20109;-67
2021/12/28 05:35:22;;;;;;;26.65;14.63;;;7.30;99.90;;;;;;5055144;28;20096;-68
2021/12/28 05:37:48;;;;;;;24.67;12.93;;;7.20;99.90;;;;;;5052871;28;20056;-67
2021/12/28 05:40:16;;;;;;;28.65;13.77;;;7.20;99.90;;;;;;5057020;28;20159;-67
2021/12/28 05:42:41;;;;;;;26.40;13.50;;;7.20;99.90;;;;;;5055243;28;20064;-68
2021/12/28 05:45:08;;;;;;;25.75;14.43;;;7.30;99.90;;;;;;5053505;28;20037;-68
2021/12/28 05:47:34;;;;;;;29.52;13.85;;;7.30;99.90;;;;;;5051483;28;20094;-68
2021/12/28 05:49:59;;;;;;;27.80;13.55;;;7.30;99.90;;;;;;5054315;28;20099;-67
2021/12/28 05:52:25;;;;;;;25.73;12.73;;;7.30;99.90;;;;;;5059997;28;20411;-68
2021/12/28 05:54:51;;;;;;;23.58;12.25;;;7.30;99.90;;;;;;5051209;28;20044;-68
2021/12/28 05:57:17;;;;;;;23.63;12.70;;;7.30;99.90;;;;;;5049355;28;20061;-68
2021/12/28 05:59:43;;;;;;;27.17;13.18;;;7.30;99.90;;;;;;5061499;28;20036;-69
2021/12/28 06:02:09;;;;;;;23.85;11.35;;;7.30;99.90;;;;;;5064113;28;20052;-68
2021/12/28 06:04:34;;;;;;;26.02;11.80;;;7.40;99.90;;;;;;5054813;28;20106;-66
2021/12/28 06:07:00;;;;;;;23.20;11.55;;;7.30;99.90;;;;;;5067344;28;20383;-67
2021/12/28 06:09:26;;;;;;;24.75;11.30;;;7.40;99.90;;;;;;5061856;28;20127;-67
2021/12/28 06:11:51;;;;;;;20.77;10.93;;;7.40;99.90;;;;;;5060732;28;20079;-68
2021/12/28 06:14:17;;;;;;;26.48;10.18;;;7.40;99.90;;;;;;5059114;28;20086;-68
2021/12/28 06:16:43;;;;;;;20.67;10.55;;;7.40;99.90;;;;;;5050146;28;20090;-67
2021/12/28 06:19:09;;;;;;;23.20;10.82;;;7.40;99.90;;;;;;5052237;28;20045;-68
2021/12/28 06:21:36;;;;;;;20.38;9.07;;;7.40;99.90;;;;;;5048714;28;20077;-68
2021/12/28 06:24:03;;;;;;;18.55;9.63;;;7.40;99.90;;;;;;5051051;28;20045;-68
2021/12/28 06:26:30;;;;;;;21.92;9.65;;;7.40;99.90;;;;;;5062762;28;20179;-68
2021/12/28 06:28:57;;;;;;;21.52;10.05;;;7.40;99.90;;;;;;5061059;28;20052;-68
2021/12/28 06:31:23;;;;;;;18.50;9.52;;;7.40;99.90;;;;;;5050380;28;20148;-69
2021/12/28 06:33:48;;;;;;;19.25;8.68;;;7.40;99.90;;;;;;5054508;28;20127;-68
2021/12/28 06:36:14;;;;;;;24.90;9.55;;;7.40;99.90;;;;;;5050107;28;20132;-69
2021/12/28 06:38:39;;;;;;;19.90;9.40;;;7.40;99.90;;;;;;5055068;28;20040;-68
2021/12/28 06:41:06;;;;;;;23.05;9.57;;;7.40;99.90;;;;;;5051422;28;20069;-68
2021/12/28 06:43:32;;;;;;;18.10;8.77;;;7.40;99.90;;;;;;5054965;28;20094;-67
2021/12/28 06:45:57;;;;;;;19.95;8.70;;;7.40;99.90;;;;;;5053326;28;20059;-68
2021/12/28 06:48:23;;;;;;;23.15;8.95;;;7.40;99.90;;;;;;5054755;28;20459;-67
2021/12/28 06:50:49;;;;;;;22.83;8.23;;;7.40;99.90;;;;;;5049992;28;20036;-68
2021/12/28 06:53:16;;;;;;;19.48;8.95;;;7.40;99.90;;;;;;5052374;28;20167;-67
2021/12/28 06:55:41;;;;;;;21.63;8.93;;;7.40;99.90;;;;;;5059613;28;20052;-67
2021/12/28 06:58:07;;;;;;;19.58;8.55;;;7.40;99.90;;;;;;5052901;28;20040;-67
2021/12/28 07:00:34;;;;;;;23.30;8.35;;;7.40;99.90;;;;;;5053001;28;20044;-67
2021/12/28 07:03:00;;;;;;;21.83;8.43;;;7.40;99.90;;;;;;5060008;28;20114;-67
2021/12/28 07:05:27;;;;;;;23.63;8.65;;;7.40;99.90;;;;;;5054539;28;20064;-68
2021/12/28 07:07:52;;;;;;;22.27;8.93;;;7.40;99.90;;;;;;5051999;28;20764;-68
2021/12/28 07:10:20;;;;;;;20.08;8.98;;;7.40;99.90;;;;;;5051164;28;20131;-69
2021/12/28 07:12:53;;;;;;;20.25;8.15;;;7.40;99.90;;;;;;5051946;28;20136;-67
2021/12/28 07:15:21;;;;;;;21.20;8.30;;;7.40;99.90;;;;;;5052234;28;20135;-68
2021/12/28 07:17:47;;;;;;;20.38;7.65;;;7.40;99.90;;;;;;5051379;28;20166;-68
2021/12/28 07:20:14;;;;;;;23.77;8.43;;;7.40;99.90;;;;;;5054799;28;20135;-68
2021/12/28 07:22:39;;;;;;;21.65;8.73;;;7.40;99.90;;;;;;5049355;28;20592;-68
2021/12/28 07:25:08;;;;;;;21.60;8.13;;;7.40;99.90;;;;;;5052041;28;20037;-68
2021/12/28 07:27:33;;;;;;;20.10;8.63;;;7.40;99.90;;;;;;5047019;28;20064;-69
2021/12/28 07:29:59;;;;;;;22.08;7.63;;;7.40;99.90;;;;;;5053422;28;20067;-68
2021/12/28 07:32:25;;;;;;;18.88;7.25;;;7.50;99.90;;;;;;5046913;28;20091;-67
2021/12/28 07:34:50;;;;;;;23.98;8.13;;;7.40;99.90;;;;;;5050902;28;20136;-67
2021/12/28 07:37:16;;;;;;;17.45;7.47;;;7.50;99.90;;;;;;5061502;28;20111;-68
2021/12/28 07:39:42;;;;;;;19.85;7.32;;;7.50;99.90;;;;;;5053784;28;20045;-69
2021/12/28 07:42:08;;;;;;;22.92;8.70;;;7.50;99.90;;;;;;5048093;28;20067;-69
2021/12/28 07:44:34;;;;;;;21.23;7.80;;;7.50;99.90;;;;;;5040974;28;20286;-69
2021/12/28 07:47:01;;;;;;;21.60;7.50;;;7.50;99.90;;;;;;5062165;28;20472;-69
2021/12/28 07:49:27;;;;;;;26.17;8.07;;;7.50;99.90;;;;;;5062965;28;20080;-70
2021/12/28 07:51:52;;;;;;;22.00;7.75;;;7.50;99.90;;;;;;5065237;28;20135;-68
2021/12/28 07:54:18;;;;;;;18.35;7.70;;;7.50;99.90;;;;;;5057598;28;20471;-66
2021/12/28 07:56:43;;;;;;;21.05;7.80;;;7.60;99.90;;;;;;5056081;28;20372;-68
2021/12/28 07:59:09;;;;;;;25.27;7.65;;;7.60;99.90;;;;;;5056038;28;20125;-68
2021/12/28 08:01:35;;;;;;;21.67;7.70;;;7.60;99.90;;;;;;5059906;28;20124;-68
2021/12/28 08:04:01;;;;;;;25.67;8.10;;;7.60;99.90;;;;;;5065110;28;20036;-67
2021/12/28 08:06:27;;;;;;;21.45;8.20;;;7.60;99.90;;;;;;5059647;28;20047;-67
2021/12/28 08:08:52;;;;;;;25.48;7.78;;;7.60;99.90;;;;;;5051145;28;20063;-68
2021/12/28 08:11:18;;;;;;;19.48;6.97;;;7.60;99.90;;;;;;5061442;28;20053;-68
2021/12/28 08:13:43;;;;;;;23.05;8.10;;;7.70;99.90;;;;;;5068250;28;20071;-68
2021/12/28 08:16:09;;;;;;;24.52;7.55;;;7.60;99.90;;;;;;5066238;28;20510;-68
2021/12/28 08:18:35;;;;;;;25.65;7.57;;;7.70;99.90;;;;;;5057920;28;20063;-68
2021/12/28 08:21:00;;;;;;;22.63;8.32;;;7.70;99.90;;;;;;5046491;28;20147;-68
2021/12/28 08:23:26;;;;;;;19.67;7.20;;;7.70;99.90;;;;;;5047688;28;20429;-68
2021/12/28 08:25:51;;;;;;;26.75;9.23;;;7.70;99.90;;;;;;5057877;28;20048;-68
2021/12/28 08:28:17;;;;;;;26.25;7.70;;;7.70;99.90;;;;;;5053295;28;20049;-68
2021/12/28 08:30:43;;;;;;;23.35;7.57;;;7.70;99.90;;;;;;5041050;28;20083;-67
2021/12/28 08:33:09;;;;;;;26.00;8.43;;;7.70;99.90;;;;;;5048918;28;20501;-67
2021/12/28 08:35:39;;;;;;;23.90;7.97;;;7.70;99.90;;;;;;5068363;28;20427;-66
2021/12/28 08:38:05;;;;;;;27.33;9.30;;;7.70;99.90;;;;;;5058664;28;20045;-67
2021/12/28 08:40:31;;;;;;;24.27;8.93;;;7.70;99.90;;;;;;5046372;28;20194;-66
2021/12/28 08:42:56;;;;;;;23.42;8.55;;;7.80;99.90;;;;;;5057638;28;20136;-69
2021/12/28 08:45:22;;;;;;;26.05;9.00;;;7.80;99.90;;;;;;5053220;28;20320;-69
2021/12/28 08:47:49;;;;;;;21.95;7.68;;;7.80;99.90;;;;;;5059003;28;20309;-69
2021/12/28 08:50:15;;;;;;;24.35;8.88;;;7.80;99.90;;;;;;5068442;28;20094;-69
2021/12/28 08:52:41;;;;;;;28.85;9.50;;;7.90;99.90;;;;;;5049184;28;20049;-68
2021/12/28 08:55:09;;;;;;;23.27;8.70;;;7.90;99.90;;;;;;5056254;28;20152;-68
2021/12/28 08:57:36;;;;;;;23.75;8.55;;;7.90;99.90;;;;;;5052095;28;20049;-68
2021/12/28 09:00:06;;;;;;;26.90;9.38;;;7.90;99.90;;;;;;5058683;28;20451;-68
2021/12/28 09:02:31;;;;;;;28.38;9.85;;;7.90;99.90;;;;;;5057395;28;20051;-69
2021/12/28 09:04:57;;;;;;;25.27;10.30;;;7.90;99.90;;;;;;5070416;28;20395;-69
2021/12/28 09:07:23;;;;;;;25.80;9.82;;;7.90;99.90;;;;;;5056068;28;20041;-67
2021/12/28 09:09:49;;;;;;;23.05;9.48;;;8.00;99.90;;;;;;5049559;28;20053;-67
2021/12/28 09:12:15;;;;;;;25.45;10.60;;;8.00;99.90;;;;;;5052447;28;20040;-67
2021/12/28 09:14:41;;;;;;;28.92;10.45;;;8.00;99.90;;;;;;5055646;28;20037;-67
2021/12/28 09:17:10;;;;;;;26.20;10.45;;;8.00;99.90;;;;;;5055403;28;20222;-67
2021/12/28 09:19:36;;;;;;;27.58;11.35;;;8.10;99.90;;;;;;5055367;28;20071;-67
2021/12/28 09:22:02;;;;;;;24.17;10.63;;;8.10;99.90;;;;;;5054560;28;20143;-67
2021/12/28 09:24:27;;;;;;;26.08;11.52;;;8.10;99.90;;;;;;5055542;28;20067;-68
2021/12/28 09:26:53;;;;;;;28.60;12.10;;;8.20;99.90;;;;;;5053041;28;20069;-69
2021/12/28 09:29:29;;;;;;;26.67;11.88;;;8.20;99.90;;;;;;5055535;28;20151;-69
2021/12/28 09:31:58;;;;;;;31.23;12.70;;;8.20;99.90;;;;;;5050108;28;20110;-67
2021/12/28 09:34:27;;;;;;;27.63;13.02;;;8.20;99.90;;;;;;5069257;28;20037;-68
2021/12/28 09:36:54;;;;;;;28.90;12.60;;;8.20;99.90;;;;;;5059324;28;20101;-68
2021/12/28 09:39:22;;;;;;;30.02;12.35;;;8.30;99.90;;;;;;5050890;28;20033;-68
2021/12/28 09:41:52;;;;;;;25.60;12.68;;;8.30;99.90;;;;;;5048801;28;20506;-67
2021/12/28 09:44:21;;;;;;;29.95;12.65;;;8.30;99.90;;;;;;5052343;28;20045;-68
2021/12/28 09:46:47;;;;;;;21.95;12.55;;;8.30;99.90;;;;;;5065243;28;20444;-68
2021/12/28 09:49:13;;;;;;;25.80;13.07;;;8.30;99.90;;;;;;5052094;28;20124;-68
2021/12/28 09:51:41;;;;;;;30.33;13.95;;;8.30;99.90;;;;;;5049063;28;20152;-67
2021/12/28 09:54:07;;;;;;;27.63;13.32;;;8.30;99.90;;;;;;5045936;28;20520;-67
2021/12/28 09:56:33;;;;;;;26.30;14.32;;;8.30;99.90;;;;;;5063932;28;20131;-67
2021/12/28 09:59:00;;;;;;;29.67;13.68;;;8.40;99.90;;;;;;5066218;28;20119;-67
2021/12/28 10:01:26;;;;;;;21.40;12.77;;;8.40;99.90;;;;;;5076953;28;20120;-68
2021/12/28 10:03:52;;;;;;;24.13;13.57;;;8.40;99.90;;;;;;5066202;28;20052;-68
2021/12/28 10:06:25;;;;;;;26.58;13.65;;;8.40;99.90;;;;;;5064771;28;20055;-69
2021/12/28 10:09:12;;;;;;;25.08;13.55;;;8.40;99.90;;;;;;5064182;28;20159;-68
2021/12/28 10:11:54;;;;;;;25.80;13.25;;;8.50;99.90;;;;;;5045993;28;20476;-69
2021/12/28 10:14:25;;;;;;;24.35;12.68;;;8.50;99.90;;;;;;5045896;28;20045;-69
2021/12/28 10:16:57;;;;;;;24.63;12.75;;;8.50;99.90;;;;;;5048241;28;20108;-69
2021/12/28 10:19:40;;;;;;;23.98;12.70;;;8.50;99.90;;;;;;5057517;28;20051;-69
2021/12/28 10:22:31;;;;;;;27.75;13.13;;;8.60;99.90;;;;;;5054072;28;20041;-69
2021/12/28 10:25:12;;;;;;;24.95;13.35;;;8.60;99.90;;;;;;5056503;28;20060;-69
2021/12/28 10:27:43;;;;;;;26.00;12.98;;;8.60;99.90;;;;;;5063239;28;20823;-68
2021/12/28 10:30:33;;;;;;;22.48;12.27;;;8.60;99.90;;;;;;5061055;28;20408;-69
2021/12/28 10:33:03;;;;;;;23.35;13.27;;;8.60;99.90;;;;;;5053874;28;20056;-69
2021/12/28 10:35:32;;;;;;;25.40;12.43;;;8.70;99.90;;;;;;5058460;28;20055;-69
2021/12/28 10:38:05;;;;;;;25.02;13.00;;;8.70;99.90;;;;;;5063020;28;20420;-68
2021/12/28 10:40:34;;;;;;;19.85;11.38;;;8.70;99.90;;;;;;5058165;28;20119;-69
2021/12/28 10:43:15;;;;;;;20.83;11.18;;;8.70;99.90;;;;;;5047083;28;20510;-69
2021/12/28 10:45:52;;;;;;;16.00;11.05;;;8.70;99.90;;;;;;5048974;28;20042;-69
2021/12/28 10:48:20;;;;;;;18.20;10.93;;;8.80;99.90;;;;;;5059986;28;20487;-69
2021/12/28 10:50:55;;;;;;;18.08;10.75;;;8.80;99.90;;;;;;5054579;28;20167;-69
2021/12/28 10:53:25;;;;;;;16.98;10.15;;;8.80;99.90;;;;;;5052836;28;20432;-68
2021/12/28 10:55:55;;;;;;;21.40;10.48;;;8.80;99.90;;;;;;5056347;28;20048;-69
2021/12/28 10:58:25;;;;;;;16.13;9.50;;;8.80;99.90;;;;;;5052009;28;20459;-69
2021/12/28 11:00:52;;;;;;;17.92;9.88;;;8.80;99.90;;;;;;5062311;28;20185;-69
2021/12/28 11:03:27;;;;;;;14.80;9.27;;;8.80;99.90;;;;;;5064912;28;20071;-69
2021/12/28 11:05:54;;;;;;;14.57;8.77;;;8.90;99.90;;;;;;5064686;28;20534;-69
2021/12/28 11:08:23;;;;;;;17.95;9.65;;;8.90;99.90;;;;;;5063993;28;20299;-69
2021/12/28 11:10:54;;;;;;;15.45;8.77;;;8.90;99.90;;;;;;5052271;28;20102;-69
2021/12/28 11:13:22;;;;;;;13.05;7.82;;;8.90;99.90;;;;;;5064754;28;20087;-69
2021/12/28 11:15:48;;;;;;;15.50;7.90;;;8.90;99.90;;;;;;5065147;28;20542;-69
2021/12/28 11:18:24;;;;;;;12.95;7.20;;;8.90;99.90;;;;;;5056323;28;20198;-69
2021/12/28 11:20:54;;;;;;;11.57;7.15;;;8.90;99.90;;;;;;5057238;28;20059;-69
2021/12/28 11:23:22;;;;;;;12.85;7.03;;;8.90;99.90;;;;;;5058537;28;20395;-69
2021/12/28 11:26:02;;;;;;;11.70;6.57;;;8.90;99.90;;;;;;5038459;28;20053;-68
2021/12/28 11:28:29;;;;;;;14.02;7.15;;;9.00;99.90;;;;;;5049022;28;20805;-68
2021/12/28 11:31:00;;;;;;;10.70;6.82;;;9.00;99.90;;;;;;5045424;28;20064;-68
2021/12/28 11:33:25;;;;;;;9.80;6.30;;;9.00;99.90;;;;;;5044169;28;20382;-68
2021/12/28 11:35:51;;;;;;;10.20;5.90;;;9.00;99.90;;;;;;5026404;28;20049;-69
2021/12/28 11:38:17;;;;;;;11.50;6.05;;;9.00;99.90;;;;;;5050958;28;20403;-68
2021/12/28 11:40:42;;;;;;;12.20;6.40;;;9.00;99.90;;;;;;5036575;28;20511;-67
2021/12/28 11:43:08;;;;;;;11.88;6.35;;;9.00;99.90;;;;;;5044120;28;20123;-68
2021/12/28 11:45:33;;;;;;;12.10;6.60;;;9.10;99.90;;;;;;5044648;28;20044;-67
2021/12/28 11:47:59;;;;;;;10.95;6.45;;;9.10;99.90;;;;;;5050921;28;20049;-68
2021/12/28 11:50:25;;;;;;;9.98;6.32;;;9.10;99.90;;;;;;5056438;28;20044;-68
2021/12/28 11:52:52;;;;;;;10.23;6.32;;;9.10;99.90;;;;;;5049315;28;20045;-68
2021/12/28 11:55:19;;;;;;;10.20;5.80;;;9.10;99.90;;;;;;5063480;28;20084;-67
2021/12/28 11:57:52;;;;;;;10.45;6.05;;;9.10;99.90;;;;;;5066674;28;20511;-67
2021/12/28 12:00:22;;;;;;;11.57;6.50;;;9.10;99.90;;;;;;5055903;28;20037;-68
2021/12/28 12:02:51;;;;;;;10.80;6.03;;;9.10;99.90;;;;;;5049226;28;20049;-67
2021/12/28 12:05:24;;;;;;;12.90;6.47;;;9.10;99.90;;;;;;5056507;28;20143;-67
2021/12/28 12:08:10;;;;;;;10.20;6.38;;;9.10;99.90;;;;;;5063148;28;20482;-66
2021/12/28 12:10:39;;;;;;;9.68;6.05;;;9.10;99.90;;;;;;5049468;28;20093;-67
2021/12/28 12:13:27;;;;;;;11.85;7.00;;;9.10;99.90;;;;;;5063045;28;20058;-67
2021/12/28 12:16:14;;;;;;;11.25;6.93;;;9.10;99.90;;;;;;5062947;28;20056;-67
2021/12/28 12:18:48;;;;;;;9.98;6.47;;;9.20;99.90;;;;;;5062949;28;20051;-68
2021/12/28 12:21:19;;;;;;;9.43;6.47;;;9.20;99.90;;;;;;5056981;28;20617;-68
2021/12/28 12:23:52;;;;;;;11.70;7.18;;;9.20;99.90;;;;;;5049689;28;20053;-68
2021/12/28 12:26:33;;;;;;;11.57;6.70;;;9.30;99.90;;;;;;5039965;28;20525;-68
2021/12/28 12:28:59;;;;;;;9.63;6.47;;;9.30;99.90;;;;;;5046089;28;20087;-68
2021/12/28 12:31:37;;;;;;;9.93;5.97;;;9.30;99.90;;;;;;5063998;28;20051;-68
2021/12/28 12:34:24;;;;;;;10.68;6.70;;;9.30;99.90;;;;;;5050581;28;20136;-68
2021/12/28 12:36:51;;;;;;;8.93;5.95;;;9.30;99.90;;;;;;5046245;28;20072;-68
2021/12/28 12:39:20;;;;;;;11.48;6.65;;;9.30;99.90;;;;;;5048793;28;20092;-68
2021/12/28 12:41:49;;;;;;;10.10;6.80;;;9.30;99.90;;;;;;5045757;28;20155;-68
2021/12/28 12:44:19;;;;;;;10.75;6.50;;;9.30;99.90;;;;;;5052927;28;20380;-68